Time;durP1;ratioP1;P1;durP2;ratioP2;P2;SDS_P1;SDS_P2;PMS_P1;PMS_P2;Temp;Humidity;BMP_temperature;BMP_pressure;BME280_temperature;BME280_humidity;BME280_pressure;Samples;Min_cycle;Max_cycle;Signal;HPM_P1;HPM_P2
2022/08/17 00:00:21;;;;;;;28.05;22.40;;;;;;;20.33;100.00;101144.03;5027245;28;20517;-77
2022/08/17 00:03:17;;;;;;;24.05;21.38;;;;;;;20.30;100.00;101148.59;5063746;28;20045;-76
2022/08/17 00:05:49;;;;;;;24.65;21.65;;;;;;;20.26;100.00;101142.47;5017793;28;20248;-77
2022/08/17 00:08:40;;;;;;;25.48;22.38;;;;;;;20.23;100.00;101129.22;5034189;28;20045;-77
2022/08/17 00:11:16;;;;;;;29.15;21.38;;;;;;;20.20;100.00;101130.16;5046438;28;20048;-77
2022/08/17 00:13:50;;;;;;;31.08;24.35;;;;;;;20.20;100.00;101129.31;5013360;28;20048;-77
2022/08/17 00:16:30;;;;;;;28.10;21.63;;;;;;;20.19;100.00;101131.09;5019193;28;20048;-76
2022/08/17 00:19:21;;;;;;;25.33;20.55;;;;;;;20.17;100.00;101130.28;5045925;28;20059;-76
2022/08/17 00:21:55;;;;;;;24.73;21.02;;;;;;;20.16;100.00;101124.97;5056230;28;20049;-77
2022/08/17 00:24:43;;;;;;;27.65;23.42;;;;;;;20.16;100.00;101124.97;5060260;28;20047;-76
2022/08/17 00:27:11;;;;;;;31.52;23.70;;;;;;;20.16;100.00;101128.53;5032208;28;20049;-76
2022/08/17 00:29:41;;;;;;;31.17;26.60;;;;;;;20.16;100.00;101123.16;5056655;28;20036;-77
2022/08/17 00:32:09;;;;;;;29.00;22.45;;;;;;;20.16;100.00;101127.66;5011936;28;20178;-77
2022/08/17 00:34:57;;;;;;;27.35;22.83;;;;;;;20.13;100.00;101122.38;5043959;28;20044;-77
2022/08/17 00:37:26;;;;;;;34.70;27.50;;;;;;;20.12;100.00;101116.19;5038214;28;20041;-76
2022/08/17 00:39:54;;;;;;;30.58;26.65;;;;;;;20.11;100.00;101117.09;5036728;28;20049;-76
2022/08/17 00:42:23;;;;;;;36.30;26.92;;;;;;;20.09;100.00;101113.59;5043705;28;20044;-76
2022/08/17 00:44:58;;;;;;;30.95;23.88;;;;;;;20.08;100.00;101119.88;5026203;28;20037;-76
2022/08/17 00:47:26;;;;;;;41.30;29.27;;;;;;;20.05;100.00;101122.63;4994906;28;20063;-77
2022/08/17 00:49:57;;;;;;;30.60;24.45;;;;;;;20.02;100.00;101123.63;5044296;28;20052;-76
2022/08/17 00:52:34;;;;;;;31.35;25.23;;;;;;;20.00;100.00;101137.94;5037550;28;20053;-76
2022/08/17 00:55:05;;;;;;;27.88;24.20;;;;;;;19.96;100.00;101133.63;5033326;28;20044;-76
2022/08/17 00:57:43;;;;;;;36.30;24.58;;;;;;;19.94;100.00;101151.53;5045513;28;20053;-76
2022/08/17 01:00:20;;;;;;;41.95;30.23;;;;;;;19.90;100.00;101140.03;5042849;28;20166;-76
2022/08/17 01:02:48;;;;;;;31.08;24.85;;;;;;;19.91;100.00;101148.97;5000734;28;20394;-78
2022/08/17 01:05:23;;;;;;;28.50;25.33;;;;;;;19.88;100.00;101139.22;5042257;28;20049;-76
2022/08/17 01:07:53;;;;;;;32.92;25.50;;;;;;;19.88;100.00;101138.34;5022107;28;20050;-78
2022/08/17 01:10:29;;;;;;;28.42;25.10;;;;;;;19.88;100.00;101135.69;5025767;28;20045;-78
2022/08/17 01:13:19;;;;;;;28.08;24.10;;;;;;;19.85;100.00;101129.50;5043388;28;20154;-76
2022/08/17 01:15:56;;;;;;;29.52;25.00;;;;;;;19.85;100.00;101125.97;5046569;28;20045;-78
2022/08/17 01:18:26;;;;;;;34.55;24.85;;;;;;;19.85;100.00;101113.47;5006948;28;20528;-76
2022/08/17 01:21:00;;;;;;;32.13;27.57;;;;;;;19.86;100.00;101120.53;5041746;28;20045;-78
2022/08/17 01:23:29;;;;;;;33.28;24.05;;;;;;;19.85;100.00;101102.75;5040298;28;20044;-78
2022/08/17 01:26:00;;;;;;;31.35;26.35;;;;;;;19.84;100.00;101106.34;5039116;28;20033;-78
2022/08/17 01:28:33;;;;;;;31.45;23.75;;;;;;;19.80;100.00;101107.38;5044836;28;20052;-76
2022/08/17 01:31:24;;;;;;;32.50;26.90;;;;;;;19.78;100.00;101111.88;5042494;28;20269;-76
2022/08/17 01:33:53;;;;;;;34.20;28.00;;;;;;;19.78;100.00;101098.53;5013130;28;20040;-79
2022/08/17 01:36:21;;;;;;;29.05;24.33;;;;;;;19.76;100.00;101113.75;5043439;28;20064;-76
2022/08/17 01:38:50;;;;;;;31.20;24.92;;;;;;;19.74;100.00;101114.72;5036143;28;20044;-77
2022/08/17 01:41:21;;;;;;;30.33;23.70;;;;;;;19.73;100.00;101111.16;5020659;28;20623;-78
2022/08/17 01:43:58;;;;;;;;;;;;;;;19.68;100.00;101115.75;5046800;28;20040;-76
2022/08/17 01:46:30;;;;;;;36.63;26.40;;;;;;;19.67;100.00;101117.53;5043649;28;19921;-78
2022/08/17 01:49:00;;;;;;;33.55;25.23;;;;;;;19.66;100.00;101122.94;5017931;28;20045;-76
2022/08/17 01:51:31;;;;;;;30.92;23.13;;;;;;;19.62;100.00;101115.91;5043992;28;20124;-76
2022/08/17 01:54:07;;;;;;;32.63;24.60;;;;;;;19.57;100.00;101105.38;5033444;28;20076;-76
2022/08/17 01:56:42;;;;;;;37.00;28.73;;;;;;;19.56;100.00;101122.31;5027032;28;20037;-77
2022/08/17 01:59:17;;;;;;;32.58;23.65;;;;;;;19.56;100.00;101118.78;5041046;28;20257;-77
2022/08/17 02:01:45;;;;;;;31.33;23.63;;;;;;;19.53;100.00;101119.75;5041309;28;20041;-76
2022/08/17 02:04:14;;;;;;;31.67;25.88;;;;;;;19.54;100.00;101124.16;5041919;28;20270;-78
2022/08/17 02:06:42;;;;;;;37.63;28.55;;;;;;;19.54;100.00;101121.50;5013141;28;20044;-76
2022/08/17 02:09:27;;;;;;;34.63;26.55;;;;;;;19.54;100.00;101121.50;5021978;28;20045;-76
2022/08/17 02:11:59;;;;;;;39.72;29.42;;;;;;;19.55;100.00;101119.72;5010643;28;20050;-77
2022/08/17 02:14:47;;;;;;;39.80;26.60;;;;;;;19.54;100.00;101112.59;5032198;28;20033;-78
2022/08/17 02:17:16;;;;;;;29.88;24.58;;;;;;;19.53;100.00;101114.41;5029359;28;20430;-77
2022/08/17 02:19:45;;;;;;;35.25;28.27;;;;;;;19.52;100.00;101106.44;5037170;28;20402;-78
2022/08/17 02:22:17;;;;;;;30.13;26.58;;;;;;;19.47;100.00;101112.78;5009515;28;20052;-77
2022/08/17 02:24:46;;;;;;;41.15;29.80;;;;;;;19.45;100.00;101117.31;5036491;28;20052;-77
2022/08/17 02:27:29;;;;;;;35.40;30.00;;;;;;;19.45;100.00;101121.75;5039072;28;20037;-78
2022/08/17 02:29:58;;;;;;;32.47;25.13;;;;;;;19.42;100.00;101133.41;5041254;28;20048;-77
2022/08/17 02:32:26;;;;;;;35.05;26.42;;;;;;;19.42;100.00;101130.75;5042036;28;20045;-76
2022/08/17 02:34:57;;;;;;;37.10;26.88;;;;;;;19.41;100.00;101121.00;5041476;28;20041;-77
2022/08/17 02:37:27;;;;;;;32.17;26.27;;;;;;;19.39;100.00;101125.47;5008466;28;20048;-76
2022/08/17 02:39:57;;;;;;;;;;;;;;;19.37;100.00;101127.31;5038382;28;20041;-77
2022/08/17 02:42:32;;;;;;;32.13;25.25;;;;;;;19.35;100.00;101129.16;5032320;28;20304;-76
2022/08/17 02:45:04;;;;;;;36.33;30.83;;;;;;;19.35;100.00;101123.81;5040782;28;20045;-78
2022/08/17 02:47:33;;;;;;;37.15;26.98;;;;;;;19.37;100.00;101119.31;5044276;28;20537;-76
2022/08/17 02:50:02;;;;;;;43.22;30.10;;;;;;;19.38;100.00;101120.22;5023410;28;20040;-77
2022/08/17 02:52:39;;;;;;;36.55;28.83;;;;;;;19.34;100.00;101119.41;5008194;28;20068;-77
2022/08/17 02:55:23;;;;;;;32.92;27.15;;;;;;;19.33;100.00;101122.13;5032865;28;22002;-77
2022/08/17 02:57:52;;;;;;;32.72;26.63;;;;;;;19.31;100.00;101127.50;5040045;28;20041;-77
2022/08/17 03:00:24;;;;;;;32.83;27.33;;;;;;;19.29;100.00;101119.53;5036327;28;20166;-76
2022/08/17 03:02:55;;;;;;;32.95;26.25;;;;;;;19.31;100.00;101126.66;5007113;28;20060;-76
2022/08/17 03:05:27;;;;;;;36.47;26.73;;;;;;;19.30;100.00;101128.44;5040810;28;20941;-76
2022/08/17 03:07:56;;;;;;;30.92;24.17;;;;;;;19.28;100.00;101117.81;5009130;28;20037;-77
2022/08/17 03:10:25;;;;;;;35.13;27.55;;;;;;;19.29;100.00;101124.88;5024773;28;20055;-77
2022/08/17 03:12:54;;;;;;;43.95;32.45;;;;;;;19.30;100.00;101117.75;5031777;28;20033;-77
2022/08/17 03:15:26;;;;;;;43.38;31.23;;;;;;;19.31;100.00;101127.50;5042120;28;20037;-77
2022/08/17 03:17:55;;;;;;;34.65;27.65;;;;;;;19.31;100.00;101122.16;5041893;28;20045;-76
2022/08/17 03:20:26;;;;;;;31.83;27.97;;;;;;;19.30;100.00;101125.78;5029606;28;20041;-76
2022/08/17 03:22:55;;;;;;;36.42;28.23;;;;;;;19.28;100.00;101119.56;5024299;28;20056;-77
2022/08/17 03:25:34;;;;;;;31.20;26.15;;;;;;;19.25;100.00;101112.53;5030215;28;20068;-76
2022/08/17 03:28:05;;;;;;;31.85;26.80;;;;;;;19.25;100.00;101114.34;5031985;28;20366;-77
2022/08/17 03:30:35;;;;;;;37.05;27.17;;;;;;;19.24;100.00;101113.47;5029614;28;20068;-77
2022/08/17 03:33:06;;;;;;;36.75;28.33;;;;;;;19.24;100.00;101109.91;5024610;28;20278;-77
2022/08/17 03:35:36;;;;;;;33.58;26.70;;;;;;;19.24;100.00;101115.25;5009198;28;20533;-76
2022/08/17 03:38:06;;;;;;;37.30;27.38;;;;;;;19.22;100.00;101112.59;5005275;28;20337;-77
2022/08/17 03:40:35;;;;;;;42.65;29.58;;;;;;;19.23;100.00;101118.84;5026304;28;20494;-76
2022/08/17 03:43:24;;;;;;;37.72;31.60;;;;;;;19.23;100.00;101113.50;5034320;28;20075;-76
2022/08/17 03:57:25;;;;;;;35.65;27.98;;;;;;;19.18;100.00;101107.41;5038394;28;20041;-77
2022/08/17 03:59:54;;;;;;;39.28;30.52;;;;;;;19.18;100.00;101100.25;5033752;28;20524;-77
2022/08/17 04:02:28;;;;;;;32.22;27.02;;;;;;;19.16;100.00;101104.78;5024830;28;20259;-77
2022/08/17 04:04:57;;;;;;;40.85;30.80;;;;;;;19.15;100.00;101104.81;5028237;28;20414;-76
2022/08/17 04:07:28;;;;;;;36.92;27.65;;;;;;;19.17;100.00;101100.31;5037527;28;20051;-76
2022/08/17 04:09:58;;;;;;;43.40;28.95;;;;;;;19.18;100.00;101096.72;5010735;28;20037;-77
2022/08/17 04:12:29;;;;;;;37.03;28.70;;;;;;;19.18;100.00;101113.63;5028991;28;20049;-77
2022/08/17 04:14:58;;;;;;;40.03;29.10;;;;;;;19.19;100.00;101111.84;5010893;28;20049;-77
2022/08/17 04:17:30;;;;;;;40.90;31.98;;;;;;;19.18;100.00;101118.09;5004361;28;20045;-77
2022/08/17 04:19:58;;;;;;;37.05;28.48;;;;;;;19.17;100.00;101113.66;5029621;28;20041;-77
2022/08/17 04:22:26;;;;;;;37.50;28.88;;;;;;;19.17;100.00;101116.31;5048878;28;20048;-76
2022/08/17 04:25:22;;;;;;;48.17;33.65;;;;;;;19.15;100.00;101126.19;4970054;28;20045;-78
2022/08/17 04:27:51;;;;;;;;;;;;;;;19.13;100.00;101128.94;5023168;28;20045;-78
2022/08/17 04:30:19;;;;;;;39.85;31.80;;;;;;;19.11;100.00;101136.09;5036966;28;19929;-76
2022/08/17 04:32:51;;;;;;;42.83;33.47;;;;;;;19.08;100.00;101136.19;5041176;28;20052;-77
2022/08/17 04:35:47;;;;;;;41.67;32.60;;;;;;;19.05;100.00;101128.25;5070589;28;20523;-77
2022/08/17 04:38:18;;;;;;;48.03;35.30;;;;;;;19.02;100.00;101128.34;5030218;28;20524;-76
2022/08/17 04:43:37;;;;;;;51.45;36.17;;;;;;;18.96;100.00;101134.72;5056319;28;20049;-77
2022/08/17 04:46:09;;;;;;;48.05;35.22;;;;;;;18.96;100.00;101125.81;5039637;28;20071;-78
2022/08/17 04:48:41;;;;;;;49.35;34.67;;;;;;;18.96;100.00;101132.06;5049437;28;20401;-77
2022/08/17 04:51:15;;;;;;;54.03;34.05;;;;;;;18.95;100.00;101138.31;5064964;28;20278;-77
2022/08/17 04:53:49;;;;;;;52.22;36.55;;;;;;;18.96;100.00;101134.72;5067649;28;20044;-77
2022/08/17 04:56:24;;;;;;;52.03;36.67;;;;;;;18.99;100.00;101137.28;5068459;28;20731;-77
2022/08/17 04:58:56;;;;;;;53.90;39.45;;;;;;;19.01;100.00;101140.78;5032906;28;20044;-77
2022/08/17 05:01:28;;;;;;;49.58;36.63;;;;;;;19.02;100.00;101147.03;5047400;28;20406;-77
2022/08/17 05:03:58;;;;;;;42.13;32.92;;;;;;;19.03;100.00;101141.63;5033176;28;20481;-78
2022/08/17 05:06:29;;;;;;;51.40;37.88;;;;;;;19.05;100.00;101136.25;5067983;28;20055;-77
2022/08/17 05:08:58;;;;;;;55.92;38.58;;;;;;;19.05;100.00;101134.47;5065681;28;20044;-78
2022/08/17 05:11:28;;;;;;;53.33;37.75;;;;;;;19.08;100.00;101144.19;5066764;28;20048;-76
2022/08/17 05:13:57;;;;;;;49.50;36.72;;;;;;;19.11;100.00;101145.88;5018103;28;20056;-77
2022/08/17 05:16:27;;;;;;;46.72;34.78;;;;;;;19.11;100.00;101140.56;5044907;28;20048;-76
2022/08/17 05:18:57;;;;;;;46.45;33.67;;;;;;;19.15;100.00;101144.88;5059758;28;20386;-77
2022/08/17 05:21:26;;;;;;;45.10;33.88;;;;;;;19.18;100.00;101139.47;5040582;28;20056;-76
2022/08/17 05:23:57;;;;;;;44.03;34.13;;;;;;;19.20;100.00;101146.50;5024485;28;20253;-77
2022/08/17 05:26:27;;;;;;;49.10;35.88;;;;;;;19.22;100.00;101143.78;5043280;28;20386;-76
2022/08/17 05:28:58;;;;;;;48.35;38.38;;;;;;;19.23;100.00;101145.56;5004669;28;20052;-76
2022/08/17 05:31:30;;;;;;;52.92;38.72;;;;;;;19.22;100.00;101142.00;5049741;28;20528;-79
2022/08/17 05:34:00;;;;;;;43.17;33.78;;;;;;;19.23;100.00;101148.25;5027451;28;20473;-78
2022/08/17 05:36:29;;;;;;;49.92;39.95;;;;;;;19.26;100.00;101142.78;5050151;28;20040;-78
2022/08/17 05:39:14;;;;;;;49.67;38.08;;;;;;;19.28;100.00;101151.63;5050171;28;20393;-77
2022/08/17 05:41:46;;;;;;;51.20;37.90;;;;;;;19.27;100.00;101145.41;5040100;28;20056;-77
2022/08/17 05:44:15;;;;;;;49.40;35.40;;;;;;;19.29;100.00;101148.06;5048371;28;20067;-77
2022/08/17 05:46:50;;;;;;;44.58;34.50;;;;;;;19.30;100.00;101157.84;5022957;28;20036;-77
2022/08/17 05:49:26;;;;;;;38.22;33.65;;;;;;;19.32;100.00;101152.44;5025721;28;20043;-77
2022/08/17 05:52:22;;;;;;;42.58;34.08;;;;;;;19.33;100.00;101163.06;5048959;28;20266;-77
2022/08/17 05:55:31;;;;;;;52.72;43.13;;;;;;;19.35;100.00;101165.72;5065035;28;20425;-81
2022/08/17 05:58:12;;;;;;;53.90;43.50;;;;;;;19.33;100.00;101178.25;5034150;28;20059;-81
2022/08/17 06:01:01;;;;;;;56.90;43.90;;;;;;;19.33;100.00;101181.78;4999400;28;20953;-80
2022/08/17 06:03:41;;;;;;;59.88;44.88;;;;;;;19.33;100.00;101179.09;5057327;28;20397;-82
2022/08/17 06:06:25;;;;;;;61.30;45.95;;;;;;;19.34;100.00;101171.97;5059718;28;20036;-81
2022/08/17 06:09:16;;;;;;;59.80;44.33;;;;;;;19.35;100.00;101171.06;5032952;28;20044;-81
2022/08/17 06:12:20;;;;;;;62.28;47.17;;;;;;;19.35;100.00;101174.59;5033578;28;20040;-81
2022/08/17 06:15:02;;;;;;;80.07;52.00;;;;;;;19.34;100.00;101174.63;5021604;28;20040;-82
2022/08/17 06:17:32;;;;;;;66.00;43.95;;;;;;;19.34;100.00;101180.88;5004782;28;20041;-82
2022/08/17 06:20:07;;;;;;;57.40;40.40;;;;;;;19.33;100.00;101181.78;5023038;28;20041;-82
2022/08/17 06:22:43;;;;;;;62.88;41.83;;;;;;;19.35;100.00;101182.59;5021177;28;20409;-82
2022/08/17 06:25:36;;;;;;;61.40;40.45;;;;;;;19.37;100.00;101183.44;5044528;28;20493;-82
2022/08/17 06:28:13;;;;;;;63.13;41.47;;;;;;;19.40;100.00;101179.81;5067917;28;20501;-82
2022/08/17 06:30:57;;;;;;;55.83;38.95;;;;;;;19.42;100.00;101188.69;5047624;28;20052;-81
2022/08/17 06:33:35;;;;;;;64.75;41.13;;;;;;;19.42;100.00;101181.53;5017506;28;20524;-82
2022/08/17 06:36:26;;;;;;;65.30;40.92;;;;;;;19.45;100.00;101191.25;5053478;28;20060;-84
2022/08/17 06:39:30;;;;;;;71.40;44.47;;;;;;;19.45;100.00;101189.47;5033565;28;20498;-85
2022/08/17 06:42:24;;;;;;;58.88;40.35;;;;;;;19.45;100.00;101196.59;5030222;28;20059;-83
2022/08/17 06:45:19;;;;;;;65.70;41.00;;;;;;;19.44;100.00;101200.19;5052712;28;20044;-83
2022/08/17 06:48:23;;;;;;;72.47;43.25;;;;;;;19.46;100.00;101203.69;5005206;28;20045;-80
2022/08/17 06:50:58;;;;;;;73.28;42.08;;;;;;;19.49;100.00;101211.63;5054406;28;20040;-80
2022/08/17 06:53:33;;;;;;;78.55;45.50;;;;;;;19.53;100.00;101215.06;5036903;28;20052;-80
2022/08/17 06:56:12;;;;;;;81.40;43.47;;;;;;;19.57;100.00;101209.63;5066829;28;20047;-81
2022/08/17 06:58:43;;;;;;;75.57;42.78;;;;;;;19.60;100.00;101214.00;5009041;28;20393;-82
2022/08/17 07:01:23;;;;;;;61.30;36.10;;;;;;;19.59;100.00;101212.25;5053895;28;20040;-80
2022/08/17 07:03:58;;;;;;;67.60;37.47;;;;;;;19.62;100.00;101212.16;5047246;28;20409;-82
2022/08/17 07:06:37;;;;;;;58.95;34.70;;;;;;;19.63;100.00;101212.09;5040567;28;20265;-81
2022/08/17 07:09:14;;;;;;;66.85;38.08;;;;;;;19.63;100.00;101214.78;5046134;28;20037;-82
2022/08/17 07:11:51;;;;;;;64.80;37.72;;;;;;;19.64;100.00;101215.66;5067451;28;20046;-83
2022/08/17 07:14:42;;;;;;;67.03;37.05;;;;;;;19.62;100.00;101218.38;5050473;28;20185;-81
2022/08/17 07:17:14;;;;;;;69.90;39.50;;;;;;;19.60;100.00;101220.22;5026811;28;20048;-82
2022/08/17 07:19:45;;;;;;;72.07;37.90;;;;;;;19.57;100.00;101214.97;5036359;28;20482;-82
2022/08/17 07:22:54;;;;;;;67.20;36.15;;;;;;;19.57;100.00;101206.06;5021126;28;20049;-80
2022/08/17 07:25:29;;;;;;;66.60;34.80;;;;;;;19.57;100.00;101190.03;5034534;28;20033;-81
2022/08/17 07:28:05;;;;;;;77.40;39.95;;;;;;;19.59;100.00;101202.44;5064592;28;20051;-78
2022/08/17 07:30:39;;;;;;;64.38;33.28;;;;;;;19.61;100.00;101215.75;5013751;28;20044;-79
2022/08/17 07:33:19;;;;;;;67.15;35.60;;;;;;;19.62;100.00;101225.50;5056379;28;20059;-79
2022/08/17 07:35:49;;;;;;;70.43;35.33;;;;;;;19.61;100.00;101205.06;5005263;28;20084;-79
2022/08/17 07:38:32;;;;;;;82.30;38.15;;;;;;;19.61;100.00;101192.56;5032619;28;20261;-79
2022/08/17 07:41:05;;;;;;;71.65;34.22;;;;;;;19.61;100.00;101189.03;5034596;28;20037;-81
2022/08/17 07:43:39;;;;;;;86.25;38.78;;;;;;;19.64;100.00;101205.84;5061983;28;20075;-79
2022/08/17 07:49:29;;;;;;;84.60;38.42;;;;;;;19.61;100.00;101211.28;5053400;28;20178;-79
2022/08/17 07:52:28;;;;;;;79.63;35.83;;;;;;;19.56;100.00;101221.22;5005758;28;20377;-80
2022/08/17 07:55:33;;;;;;;86.88;35.03;;;;;;;19.48;100.00;101215.22;5042926;28;20399;-79
2022/08/17 07:58:02;;;;;;;74.82;34.55;;;;;;;19.44;100.00;101225.13;5016534;28;20067;-79
2022/08/17 08:00:32;;;;;;;79.60;34.35;;;;;;;19.40;100.00;101233.28;5020320;28;20755;-77
2022/08/17 08:03:14;;;;;;;77.35;34.38;;;;;;;19.37;100.00;101233.34;5048222;28;20044;-77
2022/08/17 08:05:59;;;;;;;81.32;38.25;;;;;;;19.33;100.00;101229.88;5044742;28;20045;-77
2022/08/17 08:08:41;;;;;;;79.45;38.60;;;;;;;19.32;100.00;101214.78;5010163;28;20064;-77
2022/08/17 08:11:26;;;;;;;90.13;40.25;;;;;;;19.33;100.00;101216.50;5024414;28;20052;-78
2022/08/17 08:14:28;;;;;;;89.55;38.55;;;;;;;19.34;100.00;101217.38;5051390;28;20036;-77
2022/08/17 08:17:03;;;;;;;94.63;38.22;;;;;;;19.37;100.00;101209.28;5055971;28;20045;-78
2022/08/17 08:19:33;;;;;;;87.22;38.30;;;;;;;19.37;100.00;101195.94;5051889;28;20718;-78
2022/08/17 08:22:09;;;;;;;85.15;37.97;;;;;;;19.39;100.00;101189.63;5052035;28;20401;-78
2022/08/17 08:24:54;;;;;;;88.63;39.78;;;;;;;19.38;100.00;101189.69;5045892;28;20505;-80
2022/08/17 08:27:26;;;;;;;77.13;37.33;;;;;;;19.39;100.00;101188.75;5034350;28;20040;-76
2022/08/17 08:30:01;;;;;;;91.22;39.92;;;;;;;19.38;100.00;101187.88;5053606;28;20701;-77
2022/08/17 08:32:48;;;;;;;78.28;35.63;;;;;;;19.41;100.00;101208.28;5047574;28;20057;-77
2022/08/17 08:35:43;;;;;;;73.80;37.08;;;;;;;19.43;100.00;101212.69;5031981;28;20044;-78
2022/08/17 08:38:43;;;;;;;81.53;37.83;;;;;;;19.48;100.00;101218.75;5042889;28;20044;-78
2022/08/17 08:41:54;;;;;;;77.53;37.10;;;;;;;19.55;100.00;101221.28;5053787;28;20053;-77
2022/08/17 08:44:35;;;;;;;64.97;33.72;;;;;;;19.61;100.00;101231.78;5035225;28;20405;-76
2022/08/17 08:47:58;;;;;;;60.63;31.90;;;;;;;19.66;100.00;101225.41;5019270;28;20037;-78
2022/08/17 08:50:32;;;;;;;61.58;33.83;;;;;;;19.74;100.00;101219.84;5035036;28;20580;-78
2022/08/17 08:53:29;;;;;;;54.20;32.95;;;;;;;19.76;100.00;101228.72;5035710;28;20044;-81
2022/08/17 08:56:15;;;;;;;48.92;29.92;;;;;;;19.79;100.00;101217.94;5038319;28;20489;-81
2022/08/17 08:59:08;;;;;;;43.03;28.08;;;;;;;19.80;100.00;101227.69;5051761;28;20517;-80
2022/08/17 09:01:40;;;;;;;47.28;30.73;;;;;;;19.84;100.00;101233.84;5059540;28;20174;-79
2022/08/17 09:04:40;;;;;;;53.97;32.50;;;;;;;19.88;100.00;101232.81;5037002;28;20056;-79
2022/08/17 09:07:41;;;;;;;41.47;26.87;;;;;;;19.94;100.00;101231.75;5049615;28;20033;-79
2022/08/17 09:10:25;;;;;;;38.78;24.80;;;;;;;19.99;100.00;101237.84;4992516;28;20284;-79
2022/08/17 09:13:20;;;;;;;35.92;23.52;;;;;;;20.03;100.00;101244.88;5034863;28;20411;-79
2022/08/17 09:16:14;;;;;;;36.80;24.67;;;;;;;20.09;100.00;101242.00;5059768;28;20053;-79
2022/08/17 09:18:51;;;;;;;33.45;24.52;;;;;;;20.12;100.00;101235.69;5041739;28;20033;-80
2022/08/17 09:21:43;;;;;;;32.15;24.25;;;;;;;20.13;100.00;101240.09;5059630;28;20047;-79
2022/08/17 09:24:27;;;;;;;32.30;23.52;;;;;;;20.16;100.00;101240.91;5036978;28;20431;-79
2022/08/17 09:27:13;;;;;;;30.90;22.27;;;;;;;20.22;100.00;101239.81;5021714;28;21573;-79
2022/08/17 09:29:52;;;;;;;27.08;21.95;;;;;;;20.32;100.00;101251.13;5063252;28;20048;-79
2022/08/17 09:32:37;;;;;;;23.85;18.95;;;;;;;20.38;100.00;101243.78;5043047;28;20702;-78
2022/08/17 09:35:19;;;;;;;28.50;22.55;;;;;;;20.48;100.00;101247.06;5024492;28;20529;-80
2022/08/17 09:38:06;;;;;;;35.75;25.83;;;;;;;20.61;100.00;101243.09;5047748;28;20045;-79
2022/08/17 09:41:00;;;;;;;42.35;34.22;;;;;;;20.80;100.00;101237.13;5018818;28;20104;-80
2022/08/17 09:44:16;;;;;;;51.50;36.85;;;;;;;21.00;100.00;101229.31;5038217;28;20158;-79
2022/08/17 09:47:09;;;;;;;45.00;35.20;;;;;;;21.17;100.00;101242.13;4959567;28;20049;-79
2022/08/17 09:49:48;;;;;;;45.03;33.70;;;;;;;21.32;100.00;101242.50;5009883;28;20489;-80
2022/08/17 09:52:23;;;;;;;47.80;33.95;;;;;;;21.51;100.00;101240.06;5030426;28;20414;-81
2022/08/17 09:54:54;;;;;;;46.08;35.55;;;;;;;21.68;100.00;101234.97;5010235;28;20049;-79
2022/08/17 09:57:57;;;;;;;44.22;33.95;;;;;;;21.78;100.00;101241.75;4982220;28;20252;-79
2022/08/17 10:00:34;;;;;;;39.85;32.15;;;;;;;21.86;100.00;101240.59;5019904;28;20038;-79
2022/08/17 10:03:07;;;;;;;35.17;26.70;;;;;;;;;;5016213;28;20045;-80
2022/08/17 10:05:58;;;;;;;35.15;28.40;;;;;;;21.98;100.00;101242.78;5037623;28;20044;-79
2022/08/17 10:09:07;;;;;;;37.63;28.83;;;;;;;22.00;100.00;101239.13;5018724;28;20049;-80
2022/08/17 10:14:36;;;;;;;47.53;37.58;;;;;;;21.94;100.00;101247.38;4996153;28;20685;-79
2022/08/17 10:17:11;;;;;;;40.88;32.35;;;;;;;21.88;100.00;101241.41;5036265;28;20041;-80
2022/08/17 10:20:04;;;;;;;39.97;33.58;;;;;;;21.91;100.00;101241.25;5037900;28;20045;-79
2022/08/17 10:28:37;;;;;;;45.30;34.03;;;;;;;21.87;100.00;101245.00;5007259;28;20994;-83
2022/08/17 10:31:08;;;;;;;43.28;34.67;;;;;;;21.92;100.00;101241.22;5049233;28;20037;-87
2022/08/17 10:34:40;;;;;;;44.47;35.75;;;;;;;22.05;100.00;101248.81;5049564;28;20033;-85
2022/08/17 10:37:18;;;;;;;41.15;33.92;;;;;;;22.20;100.00;101241.03;4998011;28;20590;-83
2022/08/17 10:40:10;;;;;;;43.88;36.55;;;;;;;22.36;100.00;101243.13;5041145;28;20075;-83
2022/08/17 10:42:54;;;;;;;39.78;32.58;;;;;;;22.49;100.00;101236.34;5038733;28;20520;-80
2022/08/17 10:45:33;;;;;;;38.40;32.85;;;;;;;22.58;100.00;101233.28;5014826;28;20305;-81
2022/08/17 10:48:05;;;;;;;41.88;31.40;;;;;;;22.64;100.00;101240.22;5049470;28;20409;-81
2022/08/17 10:50:54;;;;;;;36.30;29.92;;;;;;;22.68;100.00;101241.81;5043039;28;20056;-81
2022/08/17 10:53:47;;;;;;;39.97;32.60;;;;;;;22.66;100.00;101243.69;5048273;28;20352;-81
2022/08/17 10:56:22;;;;;;;33.20;29.25;;;;;;;22.58;100.00;101238.66;5019105;28;20048;-84
2022/08/17 10:58:56;;;;;;;32.83;26.52;;;;;;;22.54;100.00;101234.34;5069672;28;20048;-81
2022/08/17 11:01:48;;;;;;;34.28;27.80;;;;;;;22.58;100.00;101235.09;5021567;28;20041;-81
2022/08/17 11:04:16;;;;;;;32.42;26.25;;;;;;;22.59;100.00;101236.88;5064756;28;20047;-81
2022/08/17 11:07:15;;;;;;;28.65;24.95;;;;;;;22.57;100.00;101236.91;5046646;28;20036;-82
2022/08/17 11:10:02;;;;;;;26.80;22.67;;;;;;;22.59;100.00;101228.81;5029646;28;20036;-80
2022/08/17 11:12:36;;;;;;;27.15;22.35;;;;;;;22.58;100.00;101225.22;5043371;28;20736;-80
2022/08/17 11:15:30;;;;;;;23.88;20.55;;;;;;;22.52;100.00;101230.84;5027868;28;20032;-79
2022/08/17 11:18:10;;;;;;;21.10;19.00;;;;;;;22.51;100.00;101229.13;5031609;28;20041;-80
2022/08/17 11:21:16;;;;;;;19.73;17.70;;;;;;;22.42;100.00;101232.16;5063958;28;20044;-79
2022/08/17 11:23:44;;;;;;;17.90;15.65;;;;;;;22.42;100.00;101217.84;5056263;28;20041;-79
2022/08/17 11:26:28;;;;;;;17.17;15.48;;;;;;;22.38;100.00;101227.84;5049138;28;20055;-81
2022/08/17 11:29:03;;;;;;;17.13;14.75;;;;;;;22.35;100.00;101228.84;5062404;28;20037;-79
2022/08/17 11:31:43;;;;;;;15.35;13.63;;;;;;;22.32;100.00;101220.03;5014522;28;22531;-80
2022/08/17 11:34:25;;;;;;;17.52;15.05;;;;;;;22.32;100.00;101220.03;5040208;28;20052;-79
2022/08/17 11:37:02;;;;;;;17.67;15.85;;;;;;;22.35;100.00;101220.78;5045575;28;20037;-81
2022/08/17 11:40:05;;;;;;;18.15;15.82;;;;;;;22.38;100.00;101211.72;5046411;28;20053;-80
2022/08/17 11:43:08;;;;;;;17.65;15.65;;;;;;;22.38;100.00;101215.31;5053278;28;20532;-79
2022/08/17 11:45:52;;;;;;;19.00;15.80;;;;;;;22.38;100.00;101218.00;5042451;28;20033;-80
2022/08/17 11:51:54;;;;;;;21.95;16.17;;;;;;;22.47;100.00;101219.41;5063581;28;20258;-78
2022/08/17 11:54:29;;;;;;;17.98;16.13;;;;;;;22.50;100.00;101221.97;5011368;28;20165;-79
2022/08/17 11:57:24;;;;;;;18.33;16.45;;;;;;;22.62;100.00;101234.03;5056696;28;20048;-80
2022/08/17 12:00:34;;;;;;;21.02;18.45;;;;;;;22.76;100.00;101225.41;5042324;28;20064;-80
2022/08/17 12:03:33;;;;;;;20.80;16.98;;;;;;;22.96;100.00;101225.44;5035626;28;20060;-81
2022/08/17 12:06:16;;;;;;;20.48;16.45;;;;;;;23.06;100.00;101217.00;5055803;28;20052;-79
2022/08/17 12:08:52;;;;;;;20.38;15.98;;;;;;;23.17;100.00;101217.41;5048900;28;20501;-80
2022/08/17 12:11:33;;;;;;;16.17;14.60;;;;;;;23.22;100.00;101220.78;5039434;28;20234;-78
2022/08/17 12:14:27;;;;;;;19.85;15.98;;;;;;;23.22;100.00;101215.41;5055186;28;20036;-81
2022/08/17 12:17:22;;;;;;;21.25;14.75;;;;;;;23.24;100.00;101218.91;5049078;28;20053;-84
2022/08/17 12:20:30;;;;;;;17.60;15.88;;;;;;;23.20;100.00;101216.44;5031078;28;20059;-83
2022/08/17 12:23:14;;;;;;;20.00;16.13;;;;;;;23.20;100.00;101213.75;5033969;28;20055;-80
2022/08/17 12:26:16;;;;;;;17.05;14.77;;;;;;;23.20;100.00;101219.97;5063172;28;20391;-80